sensor_id;sensor_type;location;lat;lon;timestamp;pressure;altitude;pressure_sealevel;temperature
80246;BMP280;69558;39.208;-77.226;2023-05-13T00:01:17;100269.78;;;21.41
80246;BMP280;69558;39.208;-77.226;2023-05-13T00:03:43;100270.41;;;21.37
80246;BMP280;69558;39.208;-77.226;2023-05-13T00:06:10;100274.03;;;21.36
80246;BMP280;69558;39.208;-77.226;2023-05-13T00:08:36;100279.94;;;21.38
80246;BMP280;69558;39.208;-77.226;2023-05-13T00:11:02;100281.13;;;21.42
80246;BMP280;69558;39.208;-77.226;2023-05-13T00:13:28;100279.72;;;21.39
80246;BMP280;69558;39.208;-77.226;2023-05-13T00:15:54;100286.41;;;21.42
80246;BMP280;69558;39.208;-77.226;2023-05-13T00:18:20;100281.75;;;21.37
80246;BMP280;69558;39.208;-77.226;2023-05-13T00:20:46;100279.72;;;21.39
80246;BMP280;69558;39.208;-77.226;2023-05-13T00:23:12;100277.91;;;21.40
80246;BMP280;69558;39.208;-77.226;2023-05-13T00:25:38;100272.22;;;21.36
80246;BMP280;69558;39.208;-77.226;2023-05-13T00:28:06;100283.97;;;21.40
80246;BMP280;69558;39.208;-77.226;2023-05-13T00:30:32;100283.97;;;21.40
80246;BMP280;69558;39.208;-77.226;2023-05-13T00:32:58;100280.13;;;21.43
80246;BMP280;69558;39.208;-77.226;2023-05-13T00:35:24;100272.44;;;21.35
80246;BMP280;69558;39.208;-77.226;2023-05-13T00:37:50;100282.16;;;21.41
80246;BMP280;69558;39.208;-77.226;2023-05-13T00:40:21;100282.38;;;21.39
80246;BMP280;69558;39.208;-77.226;2023-05-13T00:42:47;100278.34;;;21.37
80246;BMP280;69558;39.208;-77.226;2023-05-13T00:45:14;100286.41;;;21.42
80246;BMP280;69558;39.208;-77.226;2023-05-13T00:47:41;100287.44;;;21.41
80246;BMP280;69558;39.208;-77.226;2023-05-13T00:50:10;100290.06;;;21.41
80246;BMP280;69558;39.208;-77.226;2023-05-13T00:52:40;100279.53;;;21.41
80246;BMP280;69558;39.208;-77.226;2023-05-13T00:55:08;100288.25;;;21.41
80246;BMP280;69558;39.208;-77.226;2023-05-13T00:57:35;100278.34;;;21.37
80246;BMP280;69558;39.208;-77.226;2023-05-13T01:00:02;100274.66;;;21.31
80246;BMP280;69558;39.208;-77.226;2023-05-13T01:02:44;100277.91;;;21.33
80246;BMP280;69558;39.208;-77.226;2023-05-13T01:07:58;100295.34;;;21.41
80246;BMP280;69558;39.208;-77.226;2023-05-13T01:10:57;100296.38;;;21.40
80246;BMP280;69558;39.208;-77.226;2023-05-13T01:13:27;100300.63;;;21.41
80246;BMP280;69558;39.208;-77.226;2023-05-13T01:16:07;100296.97;;;21.42
80246;BMP280;69558;39.208;-77.226;2023-05-13T01:18:36;100297.38;;;21.39
80246;BMP280;69558;39.208;-77.226;2023-05-13T01:21:05;100304.28;;;21.40
80246;BMP280;69558;39.208;-77.226;2023-05-13T01:23:32;100308.34;;;21.42
80246;BMP280;69558;39.208;-77.226;2023-05-13T01:25:58;100274.25;;;21.21
80246;BMP280;69558;39.208;-77.226;2023-05-13T01:28:24;100309.97;;;21.43
80246;BMP280;69558;39.208;-77.226;2023-05-13T01:30:50;100303.47;;;21.39
80246;BMP280;69558;39.208;-77.226;2023-05-13T01:33:17;100308.56;;;21.41
80246;BMP280;69558;39.208;-77.226;2023-05-13T01:35:45;100309.16;;;21.43
80246;BMP280;69558;39.208;-77.226;2023-05-13T01:38:13;100303.88;;;21.36
80246;BMP280;69558;39.208;-77.226;2023-05-13T01:40:40;100321.34;;;21.44
80246;BMP280;69558;39.208;-77.226;2023-05-13T01:43:07;100323.16;;;21.43
80246;BMP280;69558;39.208;-77.226;2023-05-13T01:45:32;100311.19;;;21.34
80246;BMP280;69558;39.208;-77.226;2023-05-13T01:47:59;100314.63;;;21.41
80246;BMP280;69558;39.208;-77.226;2023-05-13T01:50:24;100321.34;;;21.44
80246;BMP280;69558;39.208;-77.226;2023-05-13T01:52:50;100320.09;;;21.46
80246;BMP280;69558;39.208;-77.226;2023-05-13T01:55:16;100319.72;;;21.43
80246;BMP280;69558;39.208;-77.226;2023-05-13T01:57:42;100315.66;;;21.40
80246;BMP280;69558;39.208;-77.226;2023-05-13T02:00:09;100310.38;;;21.40
80246;BMP280;69558;39.208;-77.226;2023-05-13T02:02:35;100317.69;;;21.45
80246;BMP280;69558;39.208;-77.226;2023-05-13T02:05:00;100309.56;;;21.40
80246;BMP280;69558;39.208;-77.226;2023-05-13T02:07:26;100307.31;;;21.43
80246;BMP280;69558;39.208;-77.226;2023-05-13T02:09:52;100328.63;;;21.48
80246;BMP280;69558;39.208;-77.226;2023-05-13T02:12:25;100321.53;;;21.49
80246;BMP280;69558;39.208;-77.226;2023-05-13T02:14:53;100322.13;;;21.51
80246;BMP280;69558;39.208;-77.226;2023-05-13T02:17:19;100321.28;;;21.51
80246;BMP280;69558;39.208;-77.226;2023-05-13T02:19:45;100326.38;;;21.45
80246;BMP280;69558;39.208;-77.226;2023-05-13T02:22:11;100319.28;;;21.46
80246;BMP280;69558;39.208;-77.226;2023-05-13T02:24:37;100321.53;;;21.49
80246;BMP280;69558;39.208;-77.226;2023-05-13T02:27:05;100320.72;;;21.48
80246;BMP280;69558;39.208;-77.226;2023-05-13T02:29:32;100318.06;;;21.48
80246;BMP280;69558;39.208;-77.226;2023-05-13T02:31:58;100310.78;;;21.44
80246;BMP280;69558;39.208;-77.226;2023-05-13T02:34:24;100319.28;;;21.46
80246;BMP280;69558;39.208;-77.226;2023-05-13T02:36:50;100314.00;;;21.46
80246;BMP280;69558;39.208;-77.226;2023-05-13T02:39:17;100309.56;;;21.46
80246;BMP280;69558;39.208;-77.226;2023-05-13T02:41:43;100315.03;;;21.45
80246;BMP280;69558;39.208;-77.226;2023-05-13T02:44:09;100302.84;;;21.44
80246;BMP280;69558;39.208;-77.226;2023-05-13T02:46:36;100305.50;;;21.44
80246;BMP280;69558;39.208;-77.226;2023-05-13T02:49:02;100313.22;;;21.52
80246;BMP280;69558;39.208;-77.226;2023-05-13T02:51:28;100303.06;;;21.49
80246;BMP280;69558;39.208;-77.226;2023-05-13T02:53:54;100305.47;;;21.51
80246;BMP280;69558;39.208;-77.226;2023-05-13T02:56:20;100308.34;;;21.49
80246;BMP280;69558;39.208;-77.226;2023-05-13T02:58:46;100319.50;;;21.51
80246;BMP280;69558;39.208;-77.226;2023-05-13T03:01:12;100311.75;;;21.49
80246;BMP280;69558;39.208;-77.226;2023-05-13T03:03:38;100303.84;;;21.49
80246;BMP280;69558;39.208;-77.226;2023-05-13T03:06:04;100307.53;;;21.48
80246;BMP280;69558;39.208;-77.226;2023-05-13T03:08:30;100290.47;;;21.38
80246;BMP280;69558;39.208;-77.226;2023-05-13T03:10:57;100302.00;;;21.50
80246;BMP280;69558;39.208;-77.226;2023-05-13T03:13:23;100296.97;;;21.48
80246;BMP280;69558;39.208;-77.226;2023-05-13T03:15:49;100309.94;;;21.50
80246;BMP280;69558;39.208;-77.226;2023-05-13T03:18:15;100305.09;;;21.47
80246;BMP280;69558;39.208;-77.226;2023-05-13T03:20:41;100307.94;;;21.52
80246;BMP280;69558;39.208;-77.226;2023-05-13T03:23:07;100278.50;;;21.35
80246;BMP280;69558;39.208;-77.226;2023-05-13T03:25:33;100285.22;;;21.38
80246;BMP280;69558;39.208;-77.226;2023-05-13T03:27:59;100304.66;;;21.50
80246;BMP280;69558;39.208;-77.226;2023-05-13T03:30:25;100303.06;;;21.49
80246;BMP280;69558;39.208;-77.226;2023-05-13T03:32:51;100287.44;;;21.41
80246;BMP280;69558;39.208;-77.226;2023-05-13T03:35:17;100302.81;;;21.51
80246;BMP280;69558;39.208;-77.226;2023-05-13T03:37:44;100301.41;;;21.55
80246;BMP280;69558;39.208;-77.226;2023-05-13T03:40:10;100297.34;;;21.45
80246;BMP280;69558;39.208;-77.226;2023-05-13T03:42:36;100296.72;;;21.50
80246;BMP280;69558;39.208;-77.226;2023-05-13T03:45:02;100287.59;;;21.46
80246;BMP280;69558;39.208;-77.226;2023-05-13T03:47:28;100297.53;;;21.51
80246;BMP280;69558;39.208;-77.226;2023-05-13T03:49:54;100289.25;;;21.47
80246;BMP280;69558;39.208;-77.226;2023-05-13T03:52:20;100295.91;;;21.49
80246;BMP280;69558;39.208;-77.226;2023-05-13T03:54:46;100290.88;;;21.48
80246;BMP280;69558;39.208;-77.226;2023-05-13T03:57:12;100299.38;;;21.50
80246;BMP280;69558;39.208;-77.226;2023-05-13T03:59:38;100299.81;;;21.47
80246;BMP280;69558;39.208;-77.226;2023-05-13T04:02:04;100305.91;;;21.47
80246;BMP280;69558;39.208;-77.226;2023-05-13T04:04:30;100303.06;;;21.49
80246;BMP280;69558;39.208;-77.226;2023-05-13T04:06:56;100299.41;;;21.43
80246;BMP280;69558;39.208;-77.226;2023-05-13T04:09:22;100297.56;;;21.44
80246;BMP280;69558;39.208;-77.226;2023-05-13T04:11:48;100287.44;;;21.41
80246;BMP280;69558;39.208;-77.226;2023-05-13T04:14:14;100264.31;;;21.36
80246;BMP280;69558;39.208;-77.226;2023-05-13T04:16:40;100287.22;;;21.49
80246;BMP280;69558;39.208;-77.226;2023-05-13T04:19:06;100284.34;;;21.51
80246;BMP280;69558;39.208;-77.226;2023-05-13T04:21:32;100288.81;;;21.50
80246;BMP280;69558;39.208;-77.226;2023-05-13T04:23:58;100279.06;;;21.51
80246;BMP280;69558;39.208;-77.226;2023-05-13T04:26:24;100283.16;;;21.53
80246;BMP280;69558;39.208;-77.226;2023-05-13T04:28:50;100279.50;;;21.47
80246;BMP280;69558;39.208;-77.226;2023-05-13T04:31:16;100277.44;;;21.49
80246;BMP280;69558;39.208;-77.226;2023-05-13T04:33:42;100281.69;;;21.51
80246;BMP280;69558;39.208;-77.226;2023-05-13T04:36:10;100271.38;;;21.49
80246;BMP280;69558;39.208;-77.226;2023-05-13T04:38:36;100268.94;;;21.47
80246;BMP280;69558;39.208;-77.226;2023-05-13T04:41:02;100250.50;;;21.41
80246;BMP280;69558;39.208;-77.226;2023-05-13T04:43:28;100266.72;;;21.51
80246;BMP280;69558;39.208;-77.226;2023-05-13T04:45:54;100253.13;;;21.41
80246;BMP280;69558;39.208;-77.226;2023-05-13T04:48:20;100268.13;;;21.47
80246;BMP280;69558;39.208;-77.226;2023-05-13T04:50:46;100269.75;;;21.48
80246;BMP280;69558;39.208;-77.226;2023-05-13T04:53:13;100267.31;;;21.46
80246;BMP280;69558;39.208;-77.226;2023-05-13T04:55:41;100252.31;;;21.40
80246;BMP280;69558;39.208;-77.226;2023-05-13T04:58:07;100256.97;;;21.45
80246;BMP280;69558;39.208;-77.226;2023-05-13T05:00:33;100260.81;;;21.49
80246;BMP280;69558;39.208;-77.226;2023-05-13T05:02:59;100257.75;;;21.45
80246;BMP280;69558;39.208;-77.226;2023-05-13T05:05:24;100254.75;;;21.42
80246;BMP280;69558;39.208;-77.226;2023-05-13T05:07:50;100235.53;;;21.28
80246;BMP280;69558;39.208;-77.226;2023-05-13T05:10:16;100244.22;;;21.35
80246;BMP280;69558;39.208;-77.226;2023-05-13T05:12:42;100227.41;;;21.23
80246;BMP280;69558;39.208;-77.226;2023-05-13T05:15:08;100241.38;;;21.30
80246;BMP280;69558;39.208;-77.226;2023-05-13T05:17:44;100233.91;;;21.27
80246;BMP280;69558;39.208;-77.226;2023-05-13T05:20:10;100247.09;;;21.27
80246;BMP280;69558;39.208;-77.226;2023-05-13T05:22:37;100248.06;;;21.26
80246;BMP280;69558;39.208;-77.226;2023-05-13T05:25:04;100238.75;;;21.30
80246;BMP280;69558;39.208;-77.226;2023-05-13T05:27:30;100237.91;;;21.36
80246;BMP280;69558;39.208;-77.226;2023-05-13T05:29:56;100227.56;;;21.35
80246;BMP280;69558;39.208;-77.226;2023-05-13T05:32:22;100233.03;;;21.40
80246;BMP280;69558;39.208;-77.226;2023-05-13T05:34:48;100228.16;;;21.43
80246;BMP280;69558;39.208;-77.226;2023-05-13T05:37:14;100217.00;;;21.41
80246;BMP280;69558;39.208;-77.226;2023-05-13T05:39:40;100219.63;;;21.48
80246;BMP280;69558;39.208;-77.226;2023-05-13T05:42:07;100227.53;;;21.48
80246;BMP280;69558;39.208;-77.226;2023-05-13T05:44:33;100214.56;;;21.40
80246;BMP280;69558;39.208;-77.226;2023-05-13T05:46:59;100208.25;;;21.41
80246;BMP280;69558;39.208;-77.226;2023-05-13T05:49:25;100221.25;;;21.49
80246;BMP280;69558;39.208;-77.226;2023-05-13T05:51:51;100208.25;;;21.47
80246;BMP280;69558;39.208;-77.226;2023-05-13T05:54:17;100196.09;;;21.40
80246;BMP280;69558;39.208;-77.226;2023-05-13T05:56:43;100209.63;;;21.50
80246;BMP280;69558;39.208;-77.226;2023-05-13T05:59:09;100212.91;;;21.52
80246;BMP280;69558;39.208;-77.226;2023-05-13T06:01:36;100205.59;;;21.47
80246;BMP280;69558;39.208;-77.226;2023-05-13T06:04:02;100204.78;;;21.47
80246;BMP280;69558;39.208;-77.226;2023-05-13T06:06:28;100205.00;;;21.52
80246;BMP280;69558;39.208;-77.226;2023-05-13T06:08:55;100201.34;;;21.53
80246;BMP280;69558;39.208;-77.226;2023-05-13T06:11:20;100203.38;;;21.51
80246;BMP280;69558;39.208;-77.226;2023-05-13T06:13:47;100200.50;;;21.53
80246;BMP280;69558;39.208;-77.226;2023-05-13T06:16:13;100195.25;;;21.53
80246;BMP280;69558;39.208;-77.226;2023-05-13T06:18:38;100197.88;;;21.53
80246;BMP280;69558;39.208;-77.226;2023-05-13T06:21:04;100182.66;;;21.48
80246;BMP280;69558;39.208;-77.226;2023-05-13T06:23:30;100189.34;;;21.51
80246;BMP280;69558;39.208;-77.226;2023-05-13T06:25:56;100172.75;;;21.43
80246;BMP280;69558;39.208;-77.226;2023-05-13T06:28:23;100183.88;;;21.45
80246;BMP280;69558;39.208;-77.226;2023-05-13T06:30:50;100187.31;;;21.53
80246;BMP280;69558;39.208;-77.226;2023-05-13T06:33:16;100180.22;;;21.53
80246;BMP280;69558;39.208;-77.226;2023-05-13T06:35:42;100181.22;;;21.52
80246;BMP280;69558;39.208;-77.226;2023-05-13T06:38:12;100183.25;;;21.50
80246;BMP280;69558;39.208;-77.226;2023-05-13T06:40:38;100186.28;;;21.54
80246;BMP280;69558;39.208;-77.226;2023-05-13T06:43:04;100178.78;;;21.51
80246;BMP280;69558;39.208;-77.226;2023-05-13T06:45:30;100182.03;;;21.53
80246;BMP280;69558;39.208;-77.226;2023-05-13T06:47:56;100174.50;;;21.49
80246;BMP280;69558;39.208;-77.226;2023-05-13T06:50:22;100174.97;;;21.46
80246;BMP280;69558;39.208;-77.226;2023-05-13T06:52:48;100179.78;;;21.49
80246;BMP280;69558;39.208;-77.226;2023-05-13T06:55:15;100179.59;;;21.51
80246;BMP280;69558;39.208;-77.226;2023-05-13T06:57:44;100188.13;;;21.53
80246;BMP280;69558;39.208;-77.226;2023-05-13T07:00:13;100176.97;;;21.51
80246;BMP280;69558;39.208;-77.226;2023-05-13T07:02:40;100179.78;;;21.49
80246;BMP280;69558;39.208;-77.226;2023-05-13T07:05:07;100179.59;;;21.51
80246;BMP280;69558;39.208;-77.226;2023-05-13T07:07:33;100155.28;;;21.42
80246;BMP280;69558;39.208;-77.226;2023-05-13T07:09:59;100181.41;;;21.51
80246;BMP280;69558;39.208;-77.226;2023-05-13T07:12:25;100189.56;;;21.49
80246;BMP280;69558;39.208;-77.226;2023-05-13T07:14:52;100188.50;;;21.50
80246;BMP280;69558;39.208;-77.226;2023-05-13T07:17:18;100171.13;;;21.42
80246;BMP280;69558;39.208;-77.226;2023-05-13T07:19:44;100180.84;;;21.48
80246;BMP280;69558;39.208;-77.226;2023-05-13T07:22:10;100187.72;;;21.49
80246;BMP280;69558;39.208;-77.226;2023-05-13T07:24:36;100191.16;;;21.50
80246;BMP280;69558;39.208;-77.226;2023-05-13T07:27:02;100192.59;;;21.53
80246;BMP280;69558;39.208;-77.226;2023-05-13T07:29:30;100183.47;;;21.48
80246;BMP280;69558;39.208;-77.226;2023-05-13T07:31:56;100180.44;;;21.52
80246;BMP280;69558;39.208;-77.226;2023-05-13T07:34:22;100185.69;;;21.52
80246;BMP280;69558;39.208;-77.226;2023-05-13T07:36:48;100190.53;;;21.55
80246;BMP280;69558;39.208;-77.226;2023-05-13T07:39:14;100188.50;;;21.50
80246;BMP280;69558;39.208;-77.226;2023-05-13T07:41:40;100186.69;;;21.51
80246;BMP280;69558;39.208;-77.226;2023-05-13T07:44:06;100190.97;;;21.52
80246;BMP280;69558;39.208;-77.226;2023-05-13T07:46:36;100196.25;;;21.52
80246;BMP280;69558;39.208;-77.226;2023-05-13T07:49:02;100193.22;;;21.48
80246;BMP280;69558;39.208;-77.226;2023-05-13T07:51:31;100188.50;;;21.50
80246;BMP280;69558;39.208;-77.226;2023-05-13T07:53:56;100184.69;;;21.46
80246;BMP280;69558;39.208;-77.226;2023-05-13T07:56:22;100189.78;;;21.47
80246;BMP280;69558;39.208;-77.226;2023-05-13T07:58:48;100193.22;;;21.48
80246;BMP280;69558;39.208;-77.226;2023-05-13T08:01:15;100191.16;;;21.50
80246;BMP280;69558;39.208;-77.226;2023-05-13T08:03:41;100193.00;;;21.49
80246;BMP280;69558;39.208;-77.226;2023-05-13T08:06:07;100180.06;;;21.41
80246;BMP280;69558;39.208;-77.226;2023-05-13T08:08:32;100192.41;;;21.47
80246;BMP280;69558;39.208;-77.226;2023-05-13T08:10:58;100194.41;;;21.45
80246;BMP280;69558;39.208;-77.226;2023-05-13T08:13:24;100191.78;;;21.45
80246;BMP280;69558;39.208;-77.226;2023-05-13T08:15:50;100187.31;;;21.46
80246;BMP280;69558;39.208;-77.226;2023-05-13T08:18:17;100198.25;;;21.49
80246;BMP280;69558;39.208;-77.226;2023-05-13T08:20:43;100196.25;;;21.52
80246;BMP280;69558;39.208;-77.226;2023-05-13T08:23:08;100191.63;;;21.40
80246;BMP280;69558;39.208;-77.226;2023-05-13T08:25:34;100205.16;;;21.51
80246;BMP280;69558;39.208;-77.226;2023-05-13T08:28:01;100192.41;;;21.47
80246;BMP280;69558;39.208;-77.226;2023-05-13T08:30:27;100183.72;;;21.40
80246;BMP280;69558;39.208;-77.226;2023-05-13T08:32:54;100187.16;;;21.41
80246;BMP280;69558;39.208;-77.226;2023-05-13T08:35:20;100188.75;;;21.48
80246;BMP280;69558;39.208;-77.226;2023-05-13T08:37:46;100191.41;;;21.48
80246;BMP280;69558;39.208;-77.226;2023-05-13T08:40:12;100183.69;;;21.47
80246;BMP280;69558;39.208;-77.226;2023-05-13T08:42:41;100181.06;;;21.40
80246;BMP280;69558;39.208;-77.226;2023-05-13T08:45:10;100179.63;;;21.44
80246;BMP280;69558;39.208;-77.226;2023-05-13T08:47:38;100163.00;;;21.37
80246;BMP280;69558;39.208;-77.226;2023-05-13T08:50:09;100178.19;;;21.48
80246;BMP280;69558;39.208;-77.226;2023-05-13T08:52:36;100174.97;;;21.46
80246;BMP280;69558;39.208;-77.226;2023-05-13T08:55:03;100167.03;;;21.46
80246;BMP280;69558;39.208;-77.226;2023-05-13T08:57:30;100164.59;;;21.45
80246;BMP280;69558;39.208;-77.226;2023-05-13T08:59:56;100157.72;;;21.44
80246;BMP280;69558;39.208;-77.226;2023-05-13T09:02:22;100152.47;;;21.37
80246;BMP280;69558;39.208;-77.226;2023-05-13T09:04:51;100158.53;;;21.44
80246;BMP280;69558;39.208;-77.226;2023-05-13T09:07:18;100154.25;;;21.43
80246;BMP280;69558;39.208;-77.226;2023-05-13T09:09:44;100149.19;;;21.42
80246;BMP280;69558;39.208;-77.226;2023-05-13T09:12:10;100140.88;;;21.45
80246;BMP280;69558;39.208;-77.226;2023-05-13T09:14:37;100154.06;;;21.45
80246;BMP280;69558;39.208;-77.226;2023-05-13T09:17:03;100143.91;;;21.42
80246;BMP280;69558;39.208;-77.226;2023-05-13T09:19:30;100158.28;;;21.46
80246;BMP280;69558;39.208;-77.226;2023-05-13T09:21:56;100157.47;;;21.45
80246;BMP280;69558;39.208;-77.226;2023-05-13T09:24:22;100152.19;;;21.45
80246;BMP280;69558;39.208;-77.226;2023-05-13T09:26:50;100154.84;;;21.45
80246;BMP280;69558;39.208;-77.226;2023-05-13T09:29:26;100149.56;;;21.45
80246;BMP280;69558;39.208;-77.226;2023-05-13T09:31:59;100162.38;;;21.42
80246;BMP280;69558;39.208;-77.226;2023-05-13T09:34:33;100166.19;;;21.46
80246;BMP280;69558;39.208;-77.226;2023-05-13T09:37:07;100157.13;;;21.42
80246;BMP280;69558;39.208;-77.226;2023-05-13T09:39:33;100172.34;;;21.40
80246;BMP280;69558;39.208;-77.226;2023-05-13T09:42:03;100170.72;;;21.39
80246;BMP280;69558;39.208;-77.226;2023-05-13T09:44:28;100184.50;;;21.41
80246;BMP280;69558;39.208;-77.226;2023-05-13T09:46:54;100181.47;;;21.37
80246;BMP280;69558;39.208;-77.226;2023-05-13T09:49:25;100193.84;;;21.43
80246;BMP280;69558;39.208;-77.226;2023-05-13T09:51:51;100178.25;;;21.35
80246;BMP280;69558;39.208;-77.226;2023-05-13T09:54:18;100187.75;;;21.43
80246;BMP280;69558;39.208;-77.226;2023-05-13T09:56:44;100206.22;;;21.43
80246;BMP280;69558;39.208;-77.226;2023-05-13T09:59:10;100204.41;;;21.43
80246;BMP280;69558;39.208;-77.226;2023-05-13T10:01:37;100214.75;;;21.45
80246;BMP280;69558;39.208;-77.226;2023-05-13T10:04:03;100219.81;;;21.46
80246;BMP280;69558;39.208;-77.226;2023-05-13T10:06:31;100217.81;;;21.42
80246;BMP280;69558;39.208;-77.226;2023-05-13T10:08:59;100199.16;;;21.30
80246;BMP280;69558;39.208;-77.226;2023-05-13T10:11:29;100218.81;;;21.41
80246;BMP280;69558;39.208;-77.226;2023-05-13T10:14:02;100220.84;;;21.39
80246;BMP280;69558;39.208;-77.226;2023-05-13T10:16:31;100227.34;;;21.36
80246;BMP280;69558;39.208;-77.226;2023-05-13T10:18:57;100244.41;;;21.40
80246;BMP280;69558;39.208;-77.226;2023-05-13T10:21:26;100231.63;;;21.31
80246;BMP280;69558;39.208;-77.226;2023-05-13T10:23:53;100261.44;;;21.44
80246;BMP280;69558;39.208;-77.226;2023-05-13T10:26:19;100272.81;;;21.45
80246;BMP280;69558;39.208;-77.226;2023-05-13T10:28:47;100284.97;;;21.46
80246;BMP280;69558;39.208;-77.226;2023-05-13T10:31:15;100277.09;;;21.39
80246;BMP280;69558;39.208;-77.226;2023-05-13T10:33:42;100276.66;;;21.42
80246;BMP280;69558;39.208;-77.226;2023-05-13T10:44:45;100274.03;;;21.42
80246;BMP280;69558;39.208;-77.226;2023-05-13T10:47:12;100276.66;;;21.42
80246;BMP280;69558;39.208;-77.226;2023-05-13T10:49:38;100268.97;;;21.41
80246;BMP280;69558;39.208;-77.226;2023-05-13T10:52:08;100268.31;;;21.45
80246;BMP280;69558;39.208;-77.226;2023-05-13T10:54:37;100267.75;;;21.43
80246;BMP280;69558;39.208;-77.226;2023-05-13T10:57:06;100265.31;;;21.42
80246;BMP280;69558;39.208;-77.226;2023-05-13T10:59:33;100256.38;;;21.36
80246;BMP280;69558;39.208;-77.226;2023-05-13T11:02:20;100259.00;;;21.43
80246;BMP280;69558;39.208;-77.226;2023-05-13T11:04:59;100248.66;;;21.41
80246;BMP280;69558;39.208;-77.226;2023-05-13T11:07:29;100243.59;;;21.40
80246;BMP280;69558;39.208;-77.226;2023-05-13T11:09:55;100240.13;;;21.39
80246;BMP280;69558;39.208;-77.226;2023-05-13T11:12:21;100243.59;;;21.40
80246;BMP280;69558;39.208;-77.226;2023-05-13T11:14:47;100248.88;;;21.40
80246;BMP280;69558;39.208;-77.226;2023-05-13T11:17:17;100243.59;;;21.40
80246;BMP280;69558;39.208;-77.226;2023-05-13T11:19:49;100247.84;;;21.41
80246;BMP280;69558;39.208;-77.226;2023-05-13T11:22:22;100246.84;;;21.42
80246;BMP280;69558;39.208;-77.226;2023-05-13T11:25:06;100249.84;;;21.45
80246;BMP280;69558;39.208;-77.226;2023-05-13T11:27:38;100258.19;;;21.42
80246;BMP280;69558;39.208;-77.226;2023-05-13T11:30:06;100250.69;;;21.39
80246;BMP280;69558;39.208;-77.226;2023-05-13T11:35:22;100246.47;;;21.32
80246;BMP280;69558;39.208;-77.226;2023-05-13T11:37:49;100261.84;;;21.41
80246;BMP280;69558;39.208;-77.226;2023-05-13T11:40:34;100246.44;;;21.38
80246;BMP280;69558;39.208;-77.226;2023-05-13T11:43:01;100251.09;;;21.43
80246;BMP280;69558;39.208;-77.226;2023-05-13T11:45:29;100259.22;;;21.41
80246;BMP280;69558;39.208;-77.226;2023-05-13T11:47:57;100257.59;;;21.40
80246;BMP280;69558;39.208;-77.226;2023-05-13T11:50:26;100263.69;;;21.41
80246;BMP280;69558;39.208;-77.226;2023-05-13T11:52:58;100270.19;;;21.38
80246;BMP280;69558;39.208;-77.226;2023-05-13T11:55:30;100289.06;;;21.42
80246;BMP280;69558;39.208;-77.226;2023-05-13T11:57:57;100281.94;;;21.42
80246;BMP280;69558;39.208;-77.226;2023-05-13T12:00:25;100282.56;;;21.38
80246;BMP280;69558;39.208;-77.226;2023-05-13T12:02:54;100288.25;;;21.41
80246;BMP280;69558;39.208;-77.226;2023-05-13T12:05:20;100294.53;;;21.40
80246;BMP280;69558;39.208;-77.226;2023-05-13T12:07:47;100282.56;;;21.31
80246;BMP280;69558;39.208;-77.226;2023-05-13T12:10:13;100303.28;;;21.41
80246;BMP280;69558;39.208;-77.226;2023-05-13T12:12:41;100295.34;;;21.34
80246;BMP280;69558;39.208;-77.226;2023-05-13T12:15:14;100287.44;;;21.41
80246;BMP280;69558;39.208;-77.226;2023-05-13T12:17:41;100285.81;;;21.40
80246;BMP280;69558;39.208;-77.226;2023-05-13T12:20:17;100282.75;;;21.43
80246;BMP280;69558;39.208;-77.226;2023-05-13T12:28:30;100289.25;;;21.40
80246;BMP280;69558;39.208;-77.226;2023-05-13T12:31:03;100298.00;;;21.41
80246;BMP280;69558;39.208;-77.226;2023-05-13T12:33:41;100299.63;;;21.35
80246;BMP280;69558;39.208;-77.226;2023-05-13T12:36:23;100304.50;;;21.38
80246;BMP280;69558;39.208;-77.226;2023-05-13T12:39:00;100308.97;;;21.38
80246;BMP280;69558;39.208;-77.226;2023-05-13T12:44:09;100296.81;;;21.37
80246;BMP280;69558;39.208;-77.226;2023-05-13T12:46:35;100299.00;;;21.40
80246;BMP280;69558;39.208;-77.226;2023-05-13T12:49:04;100298.59;;;21.36
80246;BMP280;69558;39.208;-77.226;2023-05-13T12:51:31;100308.75;;;21.39
80246;BMP280;69558;39.208;-77.226;2023-05-13T12:54:00;100308.34;;;21.36
80246;BMP280;69558;39.208;-77.226;2023-05-13T12:56:26;100314.03;;;21.39
80246;BMP280;69558;39.208;-77.226;2023-05-13T12:58:53;100319.09;;;21.41
80246;BMP280;69558;39.208;-77.226;2023-05-13T13:01:19;100305.13;;;21.27
80246;BMP280;69558;39.208;-77.226;2023-05-13T13:03:45;100320.75;;;21.29
80246;BMP280;69558;39.208;-77.226;2023-05-13T13:06:12;100325.63;;;21.32
80246;BMP280;69558;39.208;-77.226;2023-05-13T13:08:38;100324.41;;;21.28
80246;BMP280;69558;39.208;-77.226;2023-05-13T13:11:05;100342.25;;;21.26
80246;BMP280;69558;39.208;-77.226;2023-05-13T13:13:31;100340.66;;;21.18
80246;BMP280;69558;39.208;-77.226;2023-05-13T13:16:00;100335.78;;;21.15
80246;BMP280;69558;39.208;-77.226;2023-05-13T13:18:26;100340.03;;;21.09
80246;BMP280;69558;39.208;-77.226;2023-05-13T13:20:53;100358.31;;;21.18
80246;BMP280;69558;39.208;-77.226;2023-05-13T13:23:19;100349.16;;;21.13
80246;BMP280;69558;39.208;-77.226;2023-05-13T13:25:45;100363.78;;;21.23
80246;BMP280;69558;39.208;-77.226;2023-05-13T13:28:11;100364.16;;;21.26
80246;BMP280;69558;39.208;-77.226;2023-05-13T13:30:37;100368.03;;;21.30
80246;BMP280;69558;39.208;-77.226;2023-05-13T13:33:03;100369.84;;;21.30
80246;BMP280;69558;39.208;-77.226;2023-05-13T13:35:29;100380.22;;;21.38
80246;BMP280;69558;39.208;-77.226;2023-05-13T13:37:55;100377.56;;;21.38
80246;BMP280;69558;39.208;-77.226;2023-05-13T13:40:21;100383.44;;;21.40
80246;BMP280;69558;39.208;-77.226;2023-05-13T13:42:47;100381.22;;;21.43
80246;BMP280;69558;39.208;-77.226;2023-05-13T13:45:14;100386.50;;;21.43
80246;BMP280;69558;39.208;-77.226;2023-05-13T13:47:40;100379.00;;;21.40
80246;BMP280;69558;39.208;-77.226;2023-05-13T13:50:06;100393.41;;;21.44
80246;BMP280;69558;39.208;-77.226;2023-05-13T13:52:32;100392.34;;;21.45
80246;BMP280;69558;39.208;-77.226;2023-05-13T13:54:58;100395.63;;;21.47